createdAt,value
2023-05-11T00:02:07.873Z,16.50
2023-05-11T00:04:54.133Z,16.23
2023-05-11T00:07:39.470Z,14.77
2023-05-11T00:10:24.828Z,13.35
2023-05-11T00:13:10.096Z,15.32
2023-05-11T00:15:55.431Z,20.02
2023-05-11T00:18:41.113Z,12.38
2023-05-11T00:21:26.780Z,12.80
2023-05-11T00:24:12.199Z,12.05
2023-05-11T00:26:57.463Z,14.25
2023-05-11T00:29:42.568Z,12.70
2023-05-11T00:32:28.493Z,16.42
2023-05-11T00:35:13.844Z,13.32
2023-05-11T00:37:59.490Z,13.98
2023-05-11T00:40:44.722Z,14.25
2023-05-11T00:43:30.416Z,13.55
2023-05-11T00:46:15.949Z,13.80
2023-05-11T00:49:02.361Z,12.85
2023-05-11T00:51:47.561Z,13.90
2023-05-11T00:54:33.241Z,14.13
2023-05-11T00:57:18.668Z,14.77
2023-05-11T01:00:05.576Z,19.92
2023-05-11T01:02:51.759Z,16.65
2023-05-11T01:05:56.140Z,14.18
2023-05-11T01:09:35.364Z,17.70
2023-05-11T01:12:37.035Z,16.92
2023-05-11T01:15:40.017Z,17.80
2023-05-11T01:18:38.134Z,16.73
2023-05-11T01:24:32.098Z,16.60
2023-05-11T01:27:51.666Z,17.17
2023-05-11T01:30:48.120Z,21.20
2023-05-11T01:33:37.024Z,14.93
2023-05-11T01:36:28.394Z,22.05
2023-05-11T01:39:17.666Z,13.88
2023-05-11T01:42:08.387Z,15.95
2023-05-11T01:44:57.192Z,15.30
2023-05-11T01:47:44.938Z,18.65
2023-05-11T01:50:32.650Z,21.45
2023-05-11T01:53:19.843Z,25.05
2023-05-11T01:56:06.513Z,20.30
2023-05-11T01:58:54.124Z,22.60
2023-05-11T02:01:41.155Z,22.80
2023-05-11T02:04:28.971Z,18.13
2023-05-11T02:07:18.515Z,22.38
2023-05-11T02:10:04.601Z,24.05
2023-05-11T02:12:52.789Z,25.08
2023-05-11T02:15:42.177Z,17.33
2023-05-11T02:18:29.470Z,22.02
2023-05-11T02:21:16.617Z,21.95
2023-05-11T02:24:05.954Z,21.98
2023-05-11T02:26:51.168Z,18.52
2023-05-11T02:29:37.088Z,18.75
2023-05-11T02:32:23.984Z,18.45
2023-05-11T02:35:22.032Z,25.25
2023-05-11T02:38:10.701Z,17.67
2023-05-11T02:41:00.562Z,17.52
2023-05-11T02:43:51.051Z,19.10
2023-05-11T02:46:39.253Z,22.63
2023-05-11T02:49:25.865Z,17.75
2023-05-11T02:52:13.889Z,17.55
2023-05-11T02:55:04.852Z,16.73
2023-05-11T02:57:50.390Z,16.60
2023-05-11T03:00:35.985Z,19.15
2023-05-11T03:03:21.734Z,15.50
2023-05-11T03:06:07.377Z,15.30
2023-05-11T03:08:52.828Z,15.70
2023-05-11T03:11:39.028Z,14.10
2023-05-11T03:14:24.390Z,15.57
2023-05-11T03:17:10.001Z,16.00
2023-05-11T03:19:57.982Z,15.00
2023-05-11T03:22:46.403Z,14.45
2023-05-11T03:25:32.244Z,14.82
2023-05-11T03:28:19.954Z,15.73
2023-05-11T03:31:14.516Z,18.08
2023-05-11T03:34:00.226Z,13.77
2023-05-11T03:36:50.981Z,17.08
2023-05-11T03:39:38.696Z,14.57
2023-05-11T03:42:26.479Z,15.43
2023-05-11T03:45:14.464Z,15.45
2023-05-11T03:48:00.413Z,14.63
2023-05-11T03:50:47.004Z,11.82
2023-05-11T03:53:33.733Z,16.60
2023-05-11T03:56:19.424Z,14.07
2023-05-11T03:59:04.752Z,12.57
2023-05-11T04:01:53.073Z,12.75
2023-05-11T04:04:38.360Z,11.57
2023-05-11T04:07:23.719Z,12.73
2023-05-11T04:10:09.298Z,12.43
2023-05-11T04:12:54.966Z,11.85
2023-05-11T04:15:40.429Z,13.38
2023-05-11T04:18:25.827Z,13.55
2023-05-11T04:21:11.944Z,15.85
2023-05-11T04:23:57.399Z,15.48
2023-05-11T04:26:42.730Z,12.77
2023-05-11T04:29:28.313Z,14.05
2023-05-11T04:32:15.331Z,12.70
2023-05-11T04:35:01.198Z,12.48
2023-05-11T04:37:50.501Z,10.35
2023-05-11T04:40:36.256Z,11.27
2023-05-11T04:43:22.825Z,13.07
2023-05-11T04:46:08.266Z,15.63
2023-05-11T04:48:53.717Z,11.98
2023-05-11T04:51:39.361Z,10.88
2023-05-11T04:54:25.153Z,14.00
2023-05-11T04:57:10.260Z,15.10
2023-05-11T04:59:55.916Z,13.80
2023-05-11T05:02:41.072Z,14.02
2023-05-11T05:05:26.554Z,10.82
2023-05-11T05:08:12.081Z,15.68
2023-05-11T05:10:57.440Z,10.60
2023-05-11T05:13:44.648Z,11.95
2023-05-11T05:16:32.220Z,10.05
2023-05-11T05:19:17.768Z,9.18
2023-05-11T05:22:03.393Z,15.40
2023-05-11T05:24:50.198Z,14.98
2023-05-11T05:27:36.249Z,13.40
2023-05-11T05:30:27.836Z,11.55
2023-05-11T05:33:13.549Z,10.73
2023-05-11T05:35:58.863Z,14.05
2023-05-11T05:38:45.032Z,15.82
2023-05-11T05:41:30.217Z,16.05
2023-05-11T05:44:15.487Z,11.40
2023-05-11T05:47:01.896Z,12.18
2023-05-11T05:49:50.734Z,11.17
2023-05-11T05:52:36.212Z,13.10
2023-05-11T05:55:22.342Z,12.63
2023-05-11T05:58:09.346Z,10.43
2023-05-11T06:00:55.020Z,10.02
2023-05-11T06:03:40.612Z,11.70
2023-05-11T06:06:26.039Z,10.30
2023-05-11T06:09:11.878Z,16.55
2023-05-11T06:11:57.347Z,14.93
2023-05-11T06:14:43.448Z,13.10
2023-05-11T06:17:29.191Z,10.45
2023-05-11T06:20:15.287Z,10.75
2023-05-11T06:23:00.588Z,8.15
2023-05-11T06:25:46.128Z,11.32
2023-05-11T06:28:31.722Z,14.13
2023-05-11T06:34:09.545Z,11.07
2023-05-11T06:36:59.292Z,9.55
2023-05-11T06:39:45.240Z,10.95
2023-05-11T06:42:30.583Z,8.38
2023-05-11T06:45:25.040Z,7.47
2023-05-11T06:48:11.717Z,8.55
2023-05-11T06:50:56.897Z,7.70
2023-05-11T06:53:42.125Z,7.72
2023-05-11T06:56:28.008Z,7.80
2023-05-11T06:59:13.610Z,7.95
2023-05-11T07:01:58.985Z,5.88
2023-05-11T07:04:44.148Z,8.10
2023-05-11T07:07:29.235Z,9.65
2023-05-11T07:10:14.589Z,6.28
2023-05-11T07:12:59.825Z,9.82
2023-05-11T07:15:45.286Z,8.88
2023-05-11T07:18:30.611Z,7.65
2023-05-11T07:21:16.160Z,4.70
2023-05-11T07:24:01.728Z,4.90
2023-05-11T07:26:46.857Z,9.77
2023-05-11T07:29:32.282Z,6.45
2023-05-11T07:32:17.599Z,5.15
2023-05-11T07:35:03.190Z,5.07
2023-05-11T07:37:48.283Z,7.80
2023-05-11T07:40:36.285Z,5.22
2023-05-11T07:43:21.663Z,6.68
2023-05-11T07:46:07.292Z,6.82
2023-05-11T07:49:03.441Z,7.70
2023-05-11T07:51:52.849Z,7.43
2023-05-11T07:54:38.789Z,8.00
2023-05-11T07:57:23.902Z,6.65
2023-05-11T08:00:10.975Z,5.78
2023-05-11T08:02:59.887Z,6.25
2023-05-11T08:05:45.245Z,8.15
2023-05-11T08:08:30.575Z,9.52
2023-05-11T08:11:16.305Z,5.22
2023-05-11T08:14:01.238Z,10.73
2023-05-11T08:16:46.611Z,10.55
2023-05-11T08:19:31.998Z,8.48
2023-05-11T08:22:17.782Z,7.75
2023-05-11T08:25:03.844Z,5.18
2023-05-11T08:27:49.084Z,6.35
2023-05-11T08:30:34.519Z,5.32
2023-05-11T08:33:36.718Z,5.07
2023-05-11T08:36:23.538Z,6.63
2023-05-11T08:39:08.903Z,3.80
2023-05-11T08:41:57.631Z,3.80
2023-05-11T08:44:44.494Z,7.70
2023-05-11T08:47:30.089Z,6.90
2023-05-11T08:50:15.512Z,2.95
2023-05-11T08:53:00.903Z,4.38
2023-05-11T08:55:47.777Z,11.05
2023-05-11T08:58:36.212Z,8.07
2023-05-11T09:01:23.341Z,6.63
2023-05-11T09:04:09.355Z,4.13
2023-05-11T09:06:54.999Z,4.43
2023-05-11T09:09:42.009Z,6.47
2023-05-11T09:12:28.440Z,8.10
2023-05-11T09:15:13.810Z,5.45
2023-05-11T09:17:59.545Z,6.28
2023-05-11T09:20:44.994Z,6.30
2023-05-11T09:23:32.087Z,5.35
2023-05-11T09:26:21.803Z,3.75
2023-05-11T09:29:07.322Z,4.47
2023-05-11T09:31:53.578Z,3.95
2023-05-11T09:34:43.130Z,4.80
2023-05-11T09:37:31.604Z,4.40
2023-05-11T09:40:27.382Z,4.85
2023-05-11T09:43:30.187Z,4.25
2023-05-11T09:46:21.594Z,5.00
2023-05-11T09:49:07.746Z,5.88
2023-05-11T09:52:01.296Z,5.47
2023-05-11T09:54:49.993Z,4.05
2023-05-11T09:57:35.510Z,4.35
2023-05-11T10:00:21.055Z,3.83
2023-05-11T10:03:07.985Z,3.47
2023-05-11T10:06:03.829Z,4.50
2023-05-11T10:08:49.300Z,3.83
2023-05-11T10:11:43.489Z,4.55
2023-05-11T10:14:30.154Z,6.57
2023-05-11T10:17:16.224Z,4.32
2023-05-11T10:20:06.720Z,4.60
2023-05-11T10:22:55.950Z,5.60
2023-05-11T10:25:41.936Z,9.10
2023-05-11T10:28:28.174Z,6.90
2023-05-11T10:31:17.035Z,3.88
2023-05-11T10:34:04.065Z,3.40
2023-05-11T10:36:51.982Z,5.18
2023-05-11T10:39:39.145Z,5.07
2023-05-11T10:42:37.292Z,3.60
2023-05-11T10:45:29.029Z,4.07
2023-05-11T10:48:26.992Z,8.40
2023-05-11T10:51:43.652Z,6.45
2023-05-11T10:55:01.405Z,3.15
2023-05-11T10:57:49.665Z,7.85
2023-05-11T11:00:47.802Z,5.20
2023-05-11T11:03:33.342Z,3.53
2023-05-11T11:06:24.014Z,2.70
2023-05-11T11:09:14.612Z,4.95
2023-05-11T11:12:09.704Z,3.25
2023-05-11T11:15:04.950Z,3.63
2023-05-11T11:18:21.031Z,5.30
2023-05-11T11:21:06.739Z,5.47
2023-05-11T11:23:52.141Z,6.38
2023-05-11T11:26:51.877Z,4.80
2023-05-11T11:29:38.541Z,3.83
2023-05-11T11:32:23.801Z,6.25
2023-05-11T11:35:40.555Z,3.40
2023-05-11T11:38:28.583Z,4.55
2023-05-11T11:41:28.839Z,5.40
2023-05-11T11:47:19.664Z,4.03
2023-05-11T11:50:13.334Z,3.38
2023-05-11T11:52:59.468Z,3.70
2023-05-11T11:55:52.599Z,2.25
2023-05-11T11:58:41.077Z,3.55
2023-05-11T12:01:38.409Z,3.47
2023-05-11T12:04:36.644Z,5.78
2023-05-11T12:07:26.347Z,2.55
2023-05-11T12:10:17.561Z,3.53
2023-05-11T12:13:09.562Z,5.80
2023-05-11T12:16:15.225Z,13.23
2023-05-11T12:19:02.191Z,9.27
2023-05-11T12:21:47.693Z,5.35
2023-05-11T12:24:33.186Z,6.13
2023-05-11T12:27:19.674Z,5.80
2023-05-11T12:30:05.645Z,3.67
2023-05-11T12:35:43.961Z,8.88
2023-05-11T12:38:29.564Z,11.70
2023-05-11T12:41:22.849Z,7.88
2023-05-11T12:44:08.710Z,4.13
2023-05-11T12:46:54.599Z,6.53
2023-05-11T12:49:42.094Z,2.92
2023-05-11T12:52:27.503Z,7.25
2023-05-11T12:55:12.619Z,5.07
2023-05-11T12:58:13.020Z,4.38
2023-05-11T13:00:59.593Z,3.72
2023-05-11T13:03:49.038Z,4.45
2023-05-11T13:06:35.642Z,4.07
2023-05-11T13:09:27.940Z,1.85
2023-05-11T13:12:17.383Z,5.80
2023-05-11T13:15:05.822Z,3.13
2023-05-11T13:17:59.853Z,2.80
2023-05-11T13:20:46.442Z,3.65
2023-05-11T13:23:31.746Z,3.72
2023-05-11T13:26:29.088Z,3.65
2023-05-11T13:29:14.818Z,3.55
2023-05-11T13:32:04.021Z,5.88
2023-05-11T13:34:49.220Z,6.07
2023-05-11T13:37:34.844Z,5.35
2023-05-11T13:40:20.539Z,3.70
2023-05-11T13:43:06.453Z,5.13
2023-05-11T13:45:52.075Z,4.95
2023-05-11T13:48:37.121Z,10.32
2023-05-11T13:51:23.000Z,5.53
2023-05-11T13:54:08.406Z,2.90
2023-05-11T13:56:53.689Z,2.03
2023-05-11T13:59:39.040Z,5.22
2023-05-11T14:02:24.267Z,2.17
2023-05-11T14:05:09.782Z,6.88
2023-05-11T14:07:54.838Z,8.40
2023-05-11T14:10:40.400Z,4.00
2023-05-11T14:13:25.673Z,5.65
2023-05-11T14:16:10.776Z,5.32
2023-05-11T14:19:01.184Z,4.63
2023-05-11T14:21:46.807Z,3.92
2023-05-11T14:24:31.896Z,3.40
2023-05-11T14:27:17.413Z,5.80
2023-05-11T14:30:02.581Z,5.40
2023-05-11T14:32:48.608Z,5.25
2023-05-11T14:35:34.522Z,2.85
2023-05-11T14:38:20.075Z,2.92
2023-05-11T14:41:07.192Z,3.88
2023-05-11T14:43:52.230Z,2.40
2023-05-11T14:46:37.780Z,6.65
2023-05-11T14:49:23.913Z,3.33
2023-05-11T14:52:10.965Z,3.95
2023-05-11T14:54:56.414Z,2.67
2023-05-11T14:57:43.045Z,4.50
2023-05-11T15:00:28.229Z,5.50
2023-05-11T15:03:13.667Z,4.78
2023-05-11T15:05:59.677Z,4.72
2023-05-11T15:08:48.442Z,6.20
2023-05-11T15:11:34.084Z,6.05
2023-05-11T15:14:19.204Z,3.90
2023-05-11T15:17:04.688Z,3.85
2023-05-11T15:19:49.974Z,6.38
2023-05-11T15:22:35.791Z,3.38
2023-05-11T15:25:21.604Z,7.13
2023-05-11T15:28:07.047Z,3.55
2023-05-11T15:30:52.112Z,4.88
2023-05-11T15:33:37.627Z,3.15
2023-05-11T15:36:29.424Z,3.13
2023-05-11T15:39:17.128Z,4.45
2023-05-11T15:42:02.823Z,2.42
2023-05-11T15:44:48.354Z,2.50
2023-05-11T15:47:33.956Z,2.63
2023-05-11T15:50:19.407Z,2.25
2023-05-11T15:53:04.691Z,4.22
2023-05-11T15:55:53.423Z,6.60
2023-05-11T15:58:38.533Z,5.90
2023-05-11T16:01:24.000Z,5.22
2023-05-11T16:04:12.518Z,5.53
2023-05-11T16:06:58.955Z,6.55
2023-05-11T16:09:44.058Z,2.60
2023-05-11T16:12:29.376Z,4.20
2023-05-11T16:15:15.499Z,3.17
2023-05-11T16:18:03.093Z,4.78
2023-05-11T16:20:51.401Z,2.75
2023-05-11T16:23:36.949Z,3.83
2023-05-11T16:26:23.145Z,8.30
2023-05-11T16:29:08.723Z,4.70
2023-05-11T16:31:53.913Z,5.10
2023-05-11T16:34:51.734Z,4.90
2023-05-11T16:37:41.832Z,4.75
2023-05-11T16:40:27.032Z,5.75
2023-05-11T16:43:12.266Z,5.18
2023-05-11T16:48:09.495Z,9.63
2023-05-11T16:50:55.591Z,6.97
2023-05-11T16:53:41.933Z,3.92
2023-05-11T16:56:27.397Z,4.70
2023-05-11T16:59:12.473Z,2.75
2023-05-11T17:01:57.729Z,3.08
2023-05-11T17:04:43.161Z,2.67
2023-05-11T17:07:28.704Z,6.15
2023-05-11T17:10:14.162Z,4.80
2023-05-11T17:12:59.339Z,4.53
2023-05-11T17:15:44.883Z,6.15
2023-05-11T17:18:30.477Z,3.38
2023-05-11T17:21:16.760Z,8.20
2023-05-11T17:24:01.995Z,5.10
2023-05-11T17:26:48.548Z,3.67
2023-05-11T17:29:34.113Z,5.60
2023-05-11T17:32:19.540Z,7.50
2023-05-11T17:35:05.895Z,6.80
2023-05-11T17:37:51.215Z,6.88
2023-05-11T17:40:36.464Z,4.22
2023-05-11T17:43:21.879Z,3.80
2023-05-11T17:46:07.119Z,3.95
2023-05-11T17:48:52.942Z,5.13
2023-05-11T17:51:38.116Z,4.18
2023-05-11T17:54:23.670Z,5.03
2023-05-11T17:57:08.781Z,5.03
2023-05-11T17:59:54.259Z,3.38
2023-05-11T18:02:39.889Z,6.22
2023-05-11T18:05:33.342Z,4.18
2023-05-11T18:08:25.940Z,9.88
2023-05-11T18:11:12.616Z,5.65
2023-05-11T18:13:57.962Z,7.03
2023-05-11T18:16:43.415Z,5.13
2023-05-11T18:19:28.687Z,4.28
2023-05-11T18:22:14.120Z,6.88
2023-05-11T18:24:59.560Z,4.60
2023-05-11T18:27:44.728Z,4.78
2023-05-11T18:30:30.255Z,3.75
2023-05-11T18:33:15.642Z,6.10
2023-05-11T18:36:01.963Z,5.57
2023-05-11T18:38:48.804Z,5.13
2023-05-11T18:41:34.591Z,4.85
2023-05-11T18:44:19.704Z,6.15
2023-05-11T18:47:05.541Z,4.45
2023-05-11T18:49:50.700Z,4.10
2023-05-11T18:52:36.299Z,5.88
2023-05-11T18:55:22.105Z,7.07
2023-05-11T18:58:07.472Z,5.47
2023-05-11T19:00:52.878Z,8.10
2023-05-11T19:03:39.748Z,5.95
2023-05-11T19:06:25.072Z,3.60
2023-05-11T19:09:10.216Z,7.78
2023-05-11T19:11:55.753Z,6.53
2023-05-11T19:14:41.064Z,7.80
2023-05-11T19:17:26.138Z,8.10
2023-05-11T19:20:12.665Z,5.05
2023-05-11T19:22:58.403Z,5.63
2023-05-11T19:25:43.700Z,5.32
2023-05-11T19:28:28.990Z,4.75
2023-05-11T19:31:14.187Z,13.27
2023-05-11T19:33:59.957Z,5.28
2023-05-11T19:36:44.944Z,5.07
2023-05-11T19:39:30.270Z,13.88
2023-05-11T19:42:18.017Z,4.50
2023-05-11T19:45:05.478Z,8.63
2023-05-11T19:47:50.937Z,6.18
2023-05-11T19:50:36.018Z,11.40
2023-05-11T19:53:22.008Z,7.22
2023-05-11T19:56:08.524Z,5.90
2023-05-11T19:58:53.628Z,4.38
2023-05-11T20:01:39.273Z,9.88
2023-05-11T20:04:40.332Z,6.80
2023-05-11T20:07:29.427Z,5.93
2023-05-11T20:10:14.600Z,7.82
2023-05-11T20:13:00.129Z,4.82
2023-05-11T20:15:45.355Z,8.35
2023-05-11T20:18:33.240Z,5.22
2023-05-11T20:21:18.256Z,4.05
2023-05-11T20:24:03.783Z,5.65
2023-05-11T20:26:49.336Z,6.18
2023-05-11T20:29:35.994Z,6.30
2023-05-11T20:32:21.276Z,10.82
2023-05-11T20:35:07.038Z,10.05
2023-05-11T20:37:52.139Z,10.27
2023-05-11T20:40:37.743Z,7.47
2023-05-11T20:43:22.878Z,4.63
2023-05-11T20:46:08.388Z,7.45
2023-05-11T20:48:53.686Z,6.05
2023-05-11T20:51:39.452Z,5.97
2023-05-11T20:54:32.159Z,5.57
2023-05-11T20:57:17.466Z,6.22
2023-05-11T21:00:17.775Z,6.45
2023-05-11T21:03:03.049Z,8.10
2023-05-11T21:05:48.437Z,9.02
2023-05-11T21:08:34.091Z,6.95
2023-05-11T21:11:19.139Z,5.72
2023-05-11T21:14:04.534Z,6.15
2023-05-11T21:16:50.228Z,10.88
2023-05-11T21:19:35.714Z,6.22
2023-05-11T21:22:21.456Z,7.88
2023-05-11T21:25:07.165Z,4.68
2023-05-11T21:27:52.610Z,6.47
2023-05-11T21:30:37.900Z,7.30
2023-05-11T21:33:23.372Z,14.35
2023-05-11T21:36:09.228Z,5.80
2023-05-11T21:38:54.882Z,5.88
2023-05-11T21:41:40.072Z,10.52
2023-05-11T21:44:25.117Z,5.68
2023-05-11T21:47:10.565Z,12.38
2023-05-11T21:49:58.177Z,10.00
2023-05-11T21:52:43.681Z,6.88
2023-05-11T21:55:28.972Z,6.38
2023-05-11T21:58:14.366Z,7.85
2023-05-11T22:00:59.596Z,8.07
2023-05-11T22:03:44.931Z,8.25
2023-05-11T22:06:29.845Z,13.32
2023-05-11T22:09:15.813Z,11.50
2023-05-11T22:12:01.482Z,9.38
2023-05-11T22:14:47.029Z,9.68
2023-05-11T22:17:32.503Z,9.38
2023-05-11T22:20:18.070Z,7.38
2023-05-11T22:23:03.684Z,6.65
2023-05-11T22:25:49.389Z,8.00
2023-05-11T22:28:34.885Z,9.82
2023-05-11T22:31:20.689Z,7.80
2023-05-11T22:34:06.469Z,8.02
2023-05-11T22:36:52.119Z,10.23
2023-05-11T22:39:37.594Z,11.18
2023-05-11T22:42:23.298Z,9.75
2023-05-11T22:45:09.564Z,7.18
2023-05-11T22:47:54.696Z,20.40
2023-05-11T22:50:46.535Z,7.75
2023-05-11T22:53:32.503Z,6.88
2023-05-11T22:56:18.031Z,9.88
2023-05-11T22:59:04.842Z,6.90
2023-05-11T23:01:49.956Z,7.82
2023-05-11T23:04:35.487Z,13.32
2023-05-11T23:07:20.768Z,5.30
2023-05-11T23:10:06.395Z,7.35
2023-05-11T23:12:51.942Z,10.13
2023-05-11T23:15:37.094Z,5.85
2023-05-11T23:18:22.633Z,7.18
2023-05-11T23:21:08.314Z,6.97
2023-05-11T23:23:53.444Z,7.80
2023-05-11T23:26:38.826Z,7.43
2023-05-11T23:29:24.588Z,7.43
2023-05-11T23:32:09.838Z,10.13
2023-05-11T23:34:55.092Z,7.55
2023-05-11T23:37:40.567Z,8.18
2023-05-11T23:40:27.308Z,14.00
2023-05-11T23:43:12.476Z,10.68
2023-05-11T23:45:57.780Z,10.07
2023-05-11T23:48:43.297Z,10.73
2023-05-11T23:51:28.691Z,9.23
2023-05-11T23:54:14.177Z,6.75
2023-05-11T23:56:59.757Z,10.07
2023-05-11T23:59:45.156Z,9.48
